sensor_id;sensor_type;location;lat;lon;timestamp;pressure;altitude;pressure_sealevel;temperature
67822;BMP180;54434;50.096;20.082;2023-05-10T00:01:31;99193.80;;;5.50
67822;BMP180;54434;50.096;20.082;2023-05-10T00:04:07;99198.60;;;5.50
67822;BMP180;54434;50.096;20.082;2023-05-10T00:06:43;99192.60;;;5.50
67822;BMP180;54434;50.096;20.082;2023-05-10T00:09:20;99194.20;;;5.50
67822;BMP180;54434;50.096;20.082;2023-05-10T00:11:56;99194.80;;;5.50
67822;BMP180;54434;50.096;20.082;2023-05-10T00:14:33;99198.20;;;5.50
67822;BMP180;54434;50.096;20.082;2023-05-10T00:17:10;99196.60;;;5.50
67822;BMP180;54434;50.096;20.082;2023-05-10T00:19:46;99197.60;;;5.40
67822;BMP180;54434;50.096;20.082;2023-05-10T00:22:23;99197.40;;;5.40
67822;BMP180;54434;50.096;20.082;2023-05-10T00:24:59;99195.80;;;5.32
67822;BMP180;54434;50.096;20.082;2023-05-10T00:27:36;99196.80;;;5.30
67822;BMP180;54434;50.096;20.082;2023-05-10T00:30:14;99195.80;;;5.28
67822;BMP180;54434;50.096;20.082;2023-05-10T00:32:51;99190.20;;;5.20
67822;BMP180;54434;50.096;20.082;2023-05-10T00:35:28;99186.40;;;5.10
67822;BMP180;54434;50.096;20.082;2023-05-10T00:38:04;99186.20;;;5.10
67822;BMP180;54434;50.096;20.082;2023-05-10T00:40:41;99185.80;;;5.00
67822;BMP180;54434;50.096;20.082;2023-05-10T00:43:22;99181.40;;;4.90
67822;BMP180;54434;50.096;20.082;2023-05-10T00:46:00;99181.20;;;4.90
67822;BMP180;54434;50.096;20.082;2023-05-10T00:48:36;99177.40;;;4.80
67822;BMP180;54434;50.096;20.082;2023-05-10T00:51:13;99172.80;;;4.80
67822;BMP180;54434;50.096;20.082;2023-05-10T00:53:50;99169.60;;;4.74
67822;BMP180;54434;50.096;20.082;2023-05-10T00:56:27;99172.00;;;4.70
67822;BMP180;54434;50.096;20.082;2023-05-10T00:59:05;99172.60;;;4.70
67822;BMP180;54434;50.096;20.082;2023-05-10T01:01:41;99168.80;;;4.70
67822;BMP180;54434;50.096;20.082;2023-05-10T01:04:19;99169.80;;;4.70
67822;BMP180;54434;50.096;20.082;2023-05-10T01:07:00;99161.60;;;4.64
67822;BMP180;54434;50.096;20.082;2023-05-10T01:09:37;99163.60;;;4.60
67822;BMP180;54434;50.096;20.082;2023-05-10T01:12:14;99163.40;;;4.60
67822;BMP180;54434;50.096;20.082;2023-05-10T01:14:51;99163.20;;;4.60
67822;BMP180;54434;50.096;20.082;2023-05-10T01:17:28;99157.40;;;4.60
67822;BMP180;54434;50.096;20.082;2023-05-10T01:20:07;99152.80;;;4.60
67822;BMP180;54434;50.096;20.082;2023-05-10T01:23:38;99154.80;;;4.60
67822;BMP180;54434;50.096;20.082;2023-05-10T01:26:42;99152.20;;;4.60
67822;BMP180;54434;50.096;20.082;2023-05-10T01:30:19;99156.80;;;4.52
67822;BMP180;54434;50.096;20.082;2023-05-10T01:33:11;99155.20;;;4.50
67822;BMP180;54434;50.096;20.082;2023-05-10T01:36:02;99150.00;;;4.50
67822;BMP180;54434;50.096;20.082;2023-05-10T01:38:49;99151.60;;;4.50
67822;BMP180;54434;50.096;20.082;2023-05-10T01:41:45;99147.80;;;4.46
67822;BMP180;54434;50.096;20.082;2023-05-10T01:44:34;99146.20;;;4.40
67822;BMP180;54434;50.096;20.082;2023-05-10T01:47:16;99146.60;;;4.40
67822;BMP180;54434;50.096;20.082;2023-05-10T01:49:56;99145.20;;;4.40
67822;BMP180;54434;50.096;20.082;2023-05-10T01:52:42;99145.20;;;4.38
67822;BMP180;54434;50.096;20.082;2023-05-10T01:55:23;99143.20;;;4.32
67822;BMP180;54434;50.096;20.082;2023-05-10T01:58:13;99141.60;;;4.30
67822;BMP180;54434;50.096;20.082;2023-05-10T02:00:53;99141.40;;;4.30
67822;BMP180;54434;50.096;20.082;2023-05-10T02:03:32;99140.00;;;4.26
67822;BMP180;54434;50.096;20.082;2023-05-10T02:06:14;99142.40;;;4.20
67822;BMP180;54434;50.096;20.082;2023-05-10T02:08:52;99142.80;;;4.20
67822;BMP180;54434;50.096;20.082;2023-05-10T02:11:31;99139.80;;;4.20
67822;BMP180;54434;50.096;20.082;2023-05-10T02:14:09;99129.80;;;4.14
67822;BMP180;54434;50.096;20.082;2023-05-10T02:16:47;99127.00;;;4.10
67822;BMP180;54434;50.096;20.082;2023-05-10T02:19:25;99130.00;;;4.10
67822;BMP180;54434;50.096;20.082;2023-05-10T02:22:05;99126.00;;;4.10
67822;BMP180;54434;50.096;20.082;2023-05-10T02:24:44;99118.00;;;4.10
67822;BMP180;54434;50.096;20.082;2023-05-10T02:27:22;99114.20;;;4.02
67822;BMP180;54434;50.096;20.082;2023-05-10T02:30:01;99116.20;;;4.00
67822;BMP180;54434;50.096;20.082;2023-05-10T02:32:39;99114.80;;;4.00
67822;BMP180;54434;50.096;20.082;2023-05-10T02:35:16;99114.20;;;3.90
67822;BMP180;54434;50.096;20.082;2023-05-10T02:37:54;99112.20;;;3.90
67822;BMP180;54434;50.096;20.082;2023-05-10T02:40:31;99115.40;;;3.82
67822;BMP180;54434;50.096;20.082;2023-05-10T02:43:17;99114.00;;;3.80
67822;BMP180;54434;50.096;20.082;2023-05-10T02:46:00;99117.00;;;3.80
67822;BMP180;54434;50.096;20.082;2023-05-10T02:48:37;99117.60;;;3.80
67822;BMP180;54434;50.096;20.082;2023-05-10T02:51:16;99117.60;;;3.80
67822;BMP180;54434;50.096;20.082;2023-05-10T02:53:57;99114.80;;;3.70
67822;BMP180;54434;50.096;20.082;2023-05-10T02:56:44;99110.40;;;3.74
67822;BMP180;54434;50.096;20.082;2023-05-10T02:59:23;99113.40;;;3.78
67822;BMP180;54434;50.096;20.082;2023-05-10T03:02:00;99111.20;;;3.80
67822;BMP180;54434;50.096;20.082;2023-05-10T03:04:36;99112.80;;;3.80
67822;BMP180;54434;50.096;20.082;2023-05-10T03:07:15;99107.40;;;3.80
67822;BMP180;54434;50.096;20.082;2023-05-10T03:09:55;99111.00;;;3.80
67822;BMP180;54434;50.096;20.082;2023-05-10T03:15:57;99111.40;;;3.90
67822;BMP180;54434;50.096;20.082;2023-05-10T03:18:43;99107.40;;;3.90
67822;BMP180;54434;50.096;20.082;2023-05-10T03:21:24;99111.20;;;4.00
67822;BMP180;54434;50.096;20.082;2023-05-10T03:24:09;99111.40;;;4.00
67822;BMP180;54434;50.096;20.082;2023-05-10T03:26:48;99107.60;;;4.10
67822;BMP180;54434;50.096;20.082;2023-05-10T03:29:27;99114.00;;;4.10
67822;BMP180;54434;50.096;20.082;2023-05-10T03:32:05;99112.00;;;4.20
67822;BMP180;54434;50.096;20.082;2023-05-10T03:34:45;99107.60;;;4.20
67822;BMP180;54434;50.096;20.082;2023-05-10T03:37:22;99107.80;;;4.30
67822;BMP180;54434;50.096;20.082;2023-05-10T03:39:58;99102.60;;;4.40
67822;BMP180;54434;50.096;20.082;2023-05-10T03:42:36;99108.00;;;4.86
67822;BMP180;54434;50.096;20.082;2023-05-10T03:45:14;99105.60;;;5.54
67822;BMP180;54434;50.096;20.082;2023-05-10T03:47:51;99102.60;;;6.26
67822;BMP180;54434;50.096;20.082;2023-05-10T03:50:27;99109.80;;;7.02
67822;BMP180;54434;50.096;20.082;2023-05-10T03:53:04;99108.40;;;7.78
67822;BMP180;54434;50.096;20.082;2023-05-10T03:55:40;99115.20;;;8.54
67822;BMP180;54434;50.096;20.082;2023-05-10T03:58:17;99115.80;;;9.32
67822;BMP180;54434;50.096;20.082;2023-05-10T04:00:53;99112.40;;;9.98
67822;BMP180;54434;50.096;20.082;2023-05-10T04:03:30;99112.20;;;10.68
67822;BMP180;54434;50.096;20.082;2023-05-10T04:06:08;99114.00;;;11.36
67822;BMP180;54434;50.096;20.082;2023-05-10T04:08:46;99121.80;;;11.92
67822;BMP180;54434;50.096;20.082;2023-05-10T04:11:23;99118.60;;;12.50
67822;BMP180;54434;50.096;20.082;2023-05-10T04:13:59;99118.80;;;12.98
67822;BMP180;54434;50.096;20.082;2023-05-10T04:16:35;99124.00;;;13.44
67822;BMP180;54434;50.096;20.082;2023-05-10T04:19:12;99128.40;;;13.88
67822;BMP180;54434;50.096;20.082;2023-05-10T04:21:49;99128.20;;;14.24
67822;BMP180;54434;50.096;20.082;2023-05-10T04:24:25;99129.60;;;14.60
67822;BMP180;54434;50.096;20.082;2023-05-10T04:27:01;99131.60;;;14.96
67822;BMP180;54434;50.096;20.082;2023-05-10T04:29:38;99135.80;;;15.28
67822;BMP180;54434;50.096;20.082;2023-05-10T04:32:14;99136.00;;;15.60
67822;BMP180;54434;50.096;20.082;2023-05-10T04:34:52;99134.00;;;15.90
67822;BMP180;54434;50.096;20.082;2023-05-10T04:37:28;99137.00;;;16.10
67822;BMP180;54434;50.096;20.082;2023-05-10T04:40:06;99137.40;;;16.40
67822;BMP180;54434;50.096;20.082;2023-05-10T04:42:48;99139.80;;;16.60
67822;BMP180;54434;50.096;20.082;2023-05-10T04:45:26;99138.00;;;16.80
67822;BMP180;54434;50.096;20.082;2023-05-10T04:48:02;99143.40;;;17.00
67822;BMP180;54434;50.096;20.082;2023-05-10T04:50:40;99146.00;;;17.20
67822;BMP180;54434;50.096;20.082;2023-05-10T04:53:16;99146.40;;;17.40
67822;BMP180;54434;50.096;20.082;2023-05-10T04:55:54;99143.00;;;17.50
67822;BMP180;54434;50.096;20.082;2023-05-10T04:58:30;99151.40;;;17.52
67822;BMP180;54434;50.096;20.082;2023-05-10T05:01:11;99151.20;;;17.66
67822;BMP180;54434;50.096;20.082;2023-05-10T05:03:47;99145.40;;;17.82
67822;BMP180;54434;50.096;20.082;2023-05-10T05:06:24;99140.80;;;18.00
67822;BMP180;54434;50.096;20.082;2023-05-10T05:09:02;99143.40;;;18.16
67822;BMP180;54434;50.096;20.082;2023-05-10T05:11:39;99140.00;;;18.30
67822;BMP180;54434;50.096;20.082;2023-05-10T05:14:16;99136.20;;;18.36
67822;BMP180;54434;50.096;20.082;2023-05-10T05:16:53;99137.20;;;18.30
67822;BMP180;54434;50.096;20.082;2023-05-10T05:19:32;99137.20;;;18.22
67822;BMP180;54434;50.096;20.082;2023-05-10T05:22:09;99140.00;;;18.40
67822;BMP180;54434;50.096;20.082;2023-05-10T05:24:46;99138.00;;;18.58
67822;BMP180;54434;50.096;20.082;2023-05-10T05:27:23;99137.20;;;18.90
67822;BMP180;54434;50.096;20.082;2023-05-10T05:30:01;99139.80;;;19.10
67822;BMP180;54434;50.096;20.082;2023-05-10T05:32:39;99142.80;;;19.30
67822;BMP180;54434;50.096;20.082;2023-05-10T05:35:17;99136.20;;;19.40
67822;BMP180;54434;50.096;20.082;2023-05-10T05:37:54;99143.40;;;19.50
67822;BMP180;54434;50.096;20.082;2023-05-10T05:40:32;99143.80;;;19.60
67822;BMP180;54434;50.096;20.082;2023-05-10T05:43:09;99147.80;;;19.90
67822;BMP180;54434;50.096;20.082;2023-05-10T05:45:49;99141.60;;;19.86
67822;BMP180;54434;50.096;20.082;2023-05-10T05:48:28;99142.80;;;19.90
67822;BMP180;54434;50.096;20.082;2023-05-10T05:51:06;99143.40;;;20.00
67822;BMP180;54434;50.096;20.082;2023-05-10T05:53:46;99147.40;;;20.00
67822;BMP180;54434;50.096;20.082;2023-05-10T05:56:23;99148.00;;;20.10
67822;BMP180;54434;50.096;20.082;2023-05-10T05:59:01;99149.00;;;20.20
67822;BMP180;54434;50.096;20.082;2023-05-10T06:01:39;99148.40;;;20.20
67822;BMP180;54434;50.096;20.082;2023-05-10T06:04:16;99151.40;;;20.40
67822;BMP180;54434;50.096;20.082;2023-05-10T06:06:55;99149.00;;;20.64
67822;BMP180;54434;50.096;20.082;2023-05-10T06:09:31;99151.20;;;20.90
67822;BMP180;54434;50.096;20.082;2023-05-10T06:12:10;99155.80;;;21.10
67822;BMP180;54434;50.096;20.082;2023-05-10T06:14:48;99154.00;;;21.30
67822;BMP180;54434;50.096;20.082;2023-05-10T06:17:25;99156.40;;;21.44
67822;BMP180;54434;50.096;20.082;2023-05-10T06:20:03;99160.00;;;21.60
67822;BMP180;54434;50.096;20.082;2023-05-10T06:22:40;99159.00;;;21.80
67822;BMP180;54434;50.096;20.082;2023-05-10T06:25:17;99158.00;;;22.00
67822;BMP180;54434;50.096;20.082;2023-05-10T06:27:54;99160.80;;;22.20
67822;BMP180;54434;50.096;20.082;2023-05-10T06:30:33;99168.80;;;22.30
67822;BMP180;54434;50.096;20.082;2023-05-10T06:33:10;99167.80;;;22.40
67822;BMP180;54434;50.096;20.082;2023-05-10T06:35:46;99166.60;;;22.50
67822;BMP180;54434;50.096;20.082;2023-05-10T06:38:23;99170.60;;;22.70
67822;BMP180;54434;50.096;20.082;2023-05-10T06:41:00;99169.80;;;22.76
67822;BMP180;54434;50.096;20.082;2023-05-10T06:43:37;99172.40;;;22.70
67822;BMP180;54434;50.096;20.082;2023-05-10T06:46:15;99167.00;;;22.70
67822;BMP180;54434;50.096;20.082;2023-05-10T06:48:51;99160.20;;;22.74
67822;BMP180;54434;50.096;20.082;2023-05-10T06:51:28;99168.00;;;22.90
67822;BMP180;54434;50.096;20.082;2023-05-10T06:54:04;99169.00;;;22.90
67822;BMP180;54434;50.096;20.082;2023-05-10T06:56:41;99166.40;;;23.00
67822;BMP180;54434;50.096;20.082;2023-05-10T06:59:18;99169.80;;;23.00
67822;BMP180;54434;50.096;20.082;2023-05-10T07:01:56;99165.20;;;23.00
67822;BMP180;54434;50.096;20.082;2023-05-10T07:04:33;99167.00;;;23.08
67822;BMP180;54434;50.096;20.082;2023-05-10T07:07:10;99163.80;;;23.00
67822;BMP180;54434;50.096;20.082;2023-05-10T07:09:47;99164.40;;;23.00
67822;BMP180;54434;50.096;20.082;2023-05-10T07:12:24;99164.40;;;22.92
67822;BMP180;54434;50.096;20.082;2023-05-10T07:15:01;99158.80;;;22.80
67822;BMP180;54434;50.096;20.082;2023-05-10T07:17:38;99161.80;;;22.68
67822;BMP180;54434;50.096;20.082;2023-05-10T07:20:18;99159.20;;;22.50
67822;BMP180;54434;50.096;20.082;2023-05-10T07:22:55;99160.60;;;22.60
67822;BMP180;54434;50.096;20.082;2023-05-10T07:25:32;99160.80;;;22.86
67822;BMP180;54434;50.096;20.082;2023-05-10T07:28:12;99168.20;;;23.10
67822;BMP180;54434;50.096;20.082;2023-05-10T07:30:49;99164.20;;;23.10
67822;BMP180;54434;50.096;20.082;2023-05-10T07:33:26;99161.80;;;22.94
67822;BMP180;54434;50.096;20.082;2023-05-10T07:36:02;99158.60;;;22.90
67822;BMP180;54434;50.096;20.082;2023-05-10T07:38:39;99160.40;;;22.80
67822;BMP180;54434;50.096;20.082;2023-05-10T07:41:15;99152.60;;;22.60
67822;BMP180;54434;50.096;20.082;2023-05-10T07:45:56;99151.60;;;22.88
67822;BMP180;54434;50.096;20.082;2023-05-10T07:48:35;99148.60;;;23.00
67822;BMP180;54434;50.096;20.082;2023-05-10T07:51:12;99152.40;;;23.30
67822;BMP180;54434;50.096;20.082;2023-05-10T07:53:48;99150.80;;;23.50
67822;BMP180;54434;50.096;20.082;2023-05-10T07:56:31;99146.20;;;23.70
67822;BMP180;54434;50.096;20.082;2023-05-10T07:59:08;99149.00;;;23.80
67822;BMP180;54434;50.096;20.082;2023-05-10T08:01:47;99152.60;;;23.80
67822;BMP180;54434;50.096;20.082;2023-05-10T08:04:24;99147.60;;;23.60
67822;BMP180;54434;50.096;20.082;2023-05-10T08:07:01;99143.40;;;23.40
67822;BMP180;54434;50.096;20.082;2023-05-10T08:09:37;99143.60;;;23.40
67822;BMP180;54434;50.096;20.082;2023-05-10T08:12:14;99142.00;;;23.40
67822;BMP180;54434;50.096;20.082;2023-05-10T08:14:50;99145.20;;;23.20
67822;BMP180;54434;50.096;20.082;2023-05-10T08:17:27;99143.00;;;23.20
67822;BMP180;54434;50.096;20.082;2023-05-10T08:20:05;99137.00;;;23.20
67822;BMP180;54434;50.096;20.082;2023-05-10T08:22:42;99140.80;;;23.12
67822;BMP180;54434;50.096;20.082;2023-05-10T08:25:19;99146.60;;;22.90
67822;BMP180;54434;50.096;20.082;2023-05-10T08:27:55;99139.00;;;22.70
67822;BMP180;54434;50.096;20.082;2023-05-10T08:30:32;99137.80;;;22.64
67822;BMP180;54434;50.096;20.082;2023-05-10T08:33:08;99135.60;;;22.60
67822;BMP180;54434;50.096;20.082;2023-05-10T08:35:44;99134.20;;;22.60
67822;BMP180;54434;50.096;20.082;2023-05-10T08:38:22;99139.20;;;22.50
67822;BMP180;54434;50.096;20.082;2023-05-10T08:41:00;99136.20;;;22.30
67822;BMP180;54434;50.096;20.082;2023-05-10T08:43:39;99137.80;;;22.20
67822;BMP180;54434;50.096;20.082;2023-05-10T08:46:20;99137.60;;;22.10
67822;BMP180;54434;50.096;20.082;2023-05-10T08:48:57;99135.80;;;22.10
67822;BMP180;54434;50.096;20.082;2023-05-10T08:51:39;99136.60;;;22.10
67822;BMP180;54434;50.096;20.082;2023-05-10T08:54:17;99140.40;;;22.00
67822;BMP180;54434;50.096;20.082;2023-05-10T08:56:54;99136.20;;;21.90
67822;BMP180;54434;50.096;20.082;2023-05-10T08:59:31;99136.40;;;21.90
67822;BMP180;54434;50.096;20.082;2023-05-10T09:02:11;99139.00;;;21.80
67822;BMP180;54434;50.096;20.082;2023-05-10T09:04:50;99136.40;;;21.52
67822;BMP180;54434;50.096;20.082;2023-05-10T09:07:28;99134.80;;;21.40
67822;BMP180;54434;50.096;20.082;2023-05-10T09:10:07;99134.80;;;21.30
67822;BMP180;54434;50.096;20.082;2023-05-10T09:12:46;99132.20;;;21.20
67822;BMP180;54434;50.096;20.082;2023-05-10T09:15:24;99136.80;;;21.08
67822;BMP180;54434;50.096;20.082;2023-05-10T09:18:01;99139.00;;;21.00
67822;BMP180;54434;50.096;20.082;2023-05-10T09:20:38;99127.40;;;20.80
67822;BMP180;54434;50.096;20.082;2023-05-10T09:23:15;99132.20;;;20.70
67822;BMP180;54434;50.096;20.082;2023-05-10T09:26:05;99129.80;;;20.66
67822;BMP180;54434;50.096;20.082;2023-05-10T09:28:56;99125.00;;;20.60
67822;BMP180;54434;50.096;20.082;2023-05-10T09:34:35;99138.40;;;20.38
67822;BMP180;54434;50.096;20.082;2023-05-10T09:37:15;99141.20;;;20.30
67822;BMP180;54434;50.096;20.082;2023-05-10T09:39:57;99130.60;;;20.20
67822;BMP180;54434;50.096;20.082;2023-05-10T09:42:34;99133.40;;;20.10
67822;BMP180;54434;50.096;20.082;2023-05-10T09:45:12;99133.00;;;20.10
67822;BMP180;54434;50.096;20.082;2023-05-10T09:47:50;99131.20;;;20.00
67822;BMP180;54434;50.096;20.082;2023-05-10T09:50:28;99134.40;;;20.00
67822;BMP180;54434;50.096;20.082;2023-05-10T09:53:06;99135.40;;;19.92
67822;BMP180;54434;50.096;20.082;2023-05-10T09:55:48;99126.60;;;19.90
67822;BMP180;54434;50.096;20.082;2023-05-10T09:58:26;99121.40;;;19.88
67822;BMP180;54434;50.096;20.082;2023-05-10T10:01:02;99116.20;;;19.80
67822;BMP180;54434;50.096;20.082;2023-05-10T10:03:44;99121.40;;;19.80
67822;BMP180;54434;50.096;20.082;2023-05-10T10:06:24;99120.40;;;19.70
67822;BMP180;54434;50.096;20.082;2023-05-10T10:09:05;99118.60;;;19.70
67822;BMP180;54434;50.096;20.082;2023-05-10T10:11:43;99113.20;;;19.58
67822;BMP180;54434;50.096;20.082;2023-05-10T10:14:21;99107.00;;;19.50
67822;BMP180;54434;50.096;20.082;2023-05-10T10:16:58;99101.40;;;19.50
67822;BMP180;54434;50.096;20.082;2023-05-10T10:19:40;99110.00;;;19.50
67822;BMP180;54434;50.096;20.082;2023-05-10T10:22:18;99101.00;;;19.42
67822;BMP180;54434;50.096;20.082;2023-05-10T10:24:55;99095.40;;;19.40
67822;BMP180;54434;50.096;20.082;2023-05-10T10:27:45;99095.80;;;19.40
67822;BMP180;54434;50.096;20.082;2023-05-10T10:30:35;99092.40;;;19.40
67822;BMP180;54434;50.096;20.082;2023-05-10T10:34:01;99093.00;;;19.40
67822;BMP180;54434;50.096;20.082;2023-05-10T10:36:48;99089.00;;;19.40
67822;BMP180;54434;50.096;20.082;2023-05-10T10:39:26;99089.00;;;19.40
67822;BMP180;54434;50.096;20.082;2023-05-10T10:42:04;99093.80;;;19.34
67822;BMP180;54434;50.096;20.082;2023-05-10T10:44:44;99087.60;;;19.30
67822;BMP180;54434;50.096;20.082;2023-05-10T10:47:31;99081.00;;;19.30
67822;BMP180;54434;50.096;20.082;2023-05-10T10:50:10;99079.60;;;19.28
67822;BMP180;54434;50.096;20.082;2023-05-10T10:52:52;99076.20;;;19.20
67822;BMP180;54434;50.096;20.082;2023-05-10T10:55:29;99080.20;;;19.20
67822;BMP180;54434;50.096;20.082;2023-05-10T10:58:06;99083.00;;;19.20
67822;BMP180;54434;50.096;20.082;2023-05-10T11:00:44;99082.20;;;19.16
67822;BMP180;54434;50.096;20.082;2023-05-10T11:03:21;99071.20;;;19.10
67822;BMP180;54434;50.096;20.082;2023-05-10T11:06:02;99064.60;;;19.10
67822;BMP180;54434;50.096;20.082;2023-05-10T11:08:45;99066.40;;;19.10
67822;BMP180;54434;50.096;20.082;2023-05-10T11:11:23;99068.00;;;19.10
67822;BMP180;54434;50.096;20.082;2023-05-10T11:14:06;99064.60;;;19.10
67822;BMP180;54434;50.096;20.082;2023-05-10T11:16:49;99055.00;;;19.10
67822;BMP180;54434;50.096;20.082;2023-05-10T11:19:30;99062.60;;;19.10
67822;BMP180;54434;50.096;20.082;2023-05-10T11:22:18;99053.20;;;19.10
67822;BMP180;54434;50.096;20.082;2023-05-10T11:25:02;99057.40;;;19.10
67822;BMP180;54434;50.096;20.082;2023-05-10T11:27:41;99062.20;;;19.10
67822;BMP180;54434;50.096;20.082;2023-05-10T11:30:19;99069.80;;;19.10
67822;BMP180;54434;50.096;20.082;2023-05-10T11:32:55;99057.00;;;19.10
67822;BMP180;54434;50.096;20.082;2023-05-10T11:35:32;99056.60;;;19.10
67822;BMP180;54434;50.096;20.082;2023-05-10T11:38:16;99055.80;;;19.10
67822;BMP180;54434;50.096;20.082;2023-05-10T11:40:54;99058.40;;;19.10
67822;BMP180;54434;50.096;20.082;2023-05-10T11:43:31;99058.40;;;19.10
67822;BMP180;54434;50.096;20.082;2023-05-10T11:46:10;99041.60;;;19.00
67822;BMP180;54434;50.096;20.082;2023-05-10T11:48:48;99040.00;;;19.00
67822;BMP180;54434;50.096;20.082;2023-05-10T11:51:28;99037.80;;;19.00
67822;BMP180;54434;50.096;20.082;2023-05-10T11:54:10;99035.00;;;19.00
67822;BMP180;54434;50.096;20.082;2023-05-10T11:56:46;99034.40;;;19.00
67822;BMP180;54434;50.096;20.082;2023-05-10T11:59:23;99044.60;;;18.90
67822;BMP180;54434;50.096;20.082;2023-05-10T12:02:01;99038.80;;;18.90
67822;BMP180;54434;50.096;20.082;2023-05-10T12:04:39;99047.80;;;18.90
67822;BMP180;54434;50.096;20.082;2023-05-10T12:07:17;99043.80;;;18.90
67822;BMP180;54434;50.096;20.082;2023-05-10T12:10:12;99042.00;;;18.90
67822;BMP180;54434;50.096;20.082;2023-05-10T12:12:53;99035.00;;;18.80
67822;BMP180;54434;50.096;20.082;2023-05-10T12:15:30;99032.20;;;18.80
67822;BMP180;54434;50.096;20.082;2023-05-10T12:18:09;99036.40;;;18.80
67822;BMP180;54434;50.096;20.082;2023-05-10T12:20:46;99030.80;;;18.80
67822;BMP180;54434;50.096;20.082;2023-05-10T12:23:23;99038.20;;;18.80
67822;BMP180;54434;50.096;20.082;2023-05-10T12:26:07;99028.20;;;18.80
67822;BMP180;54434;50.096;20.082;2023-05-10T12:28:46;99023.00;;;18.80
67822;BMP180;54434;50.096;20.082;2023-05-10T12:31:23;99015.40;;;18.86
67822;BMP180;54434;50.096;20.082;2023-05-10T12:33:59;99016.60;;;18.90
67822;BMP180;54434;50.096;20.082;2023-05-10T12:36:41;99022.80;;;18.88
67822;BMP180;54434;50.096;20.082;2023-05-10T12:39:18;99016.00;;;18.88
67822;BMP180;54434;50.096;20.082;2023-05-10T12:41:55;99019.20;;;18.88
67822;BMP180;54434;50.096;20.082;2023-05-10T12:44:31;99004.80;;;18.80
67822;BMP180;54434;50.096;20.082;2023-05-10T12:47:08;99001.00;;;18.80
67822;BMP180;54434;50.096;20.082;2023-05-10T12:49:46;99008.40;;;18.80
67822;BMP180;54434;50.096;20.082;2023-05-10T12:52:23;99006.40;;;18.80
67822;BMP180;54434;50.096;20.082;2023-05-10T12:55:00;99005.00;;;18.80
67822;BMP180;54434;50.096;20.082;2023-05-10T12:57:38;98990.60;;;18.84
67822;BMP180;54434;50.096;20.082;2023-05-10T13:00:18;98994.60;;;18.90
67822;BMP180;54434;50.096;20.082;2023-05-10T13:02:55;99000.80;;;18.90
67822;BMP180;54434;50.096;20.082;2023-05-10T13:05:32;98995.00;;;18.80
67822;BMP180;54434;50.096;20.082;2023-05-10T13:08:09;98994.60;;;18.88
67822;BMP180;54434;50.096;20.082;2023-05-10T13:10:46;98991.40;;;18.90
67822;BMP180;54434;50.096;20.082;2023-05-10T13:13:23;98993.00;;;18.90
67822;BMP180;54434;50.096;20.082;2023-05-10T13:16:00;98986.80;;;18.90
67822;BMP180;54434;50.096;20.082;2023-05-10T13:18:36;98991.00;;;18.84
67822;BMP180;54434;50.096;20.082;2023-05-10T13:21:13;98985.40;;;18.90
67822;BMP180;54434;50.096;20.082;2023-05-10T13:23:50;98986.40;;;18.90
67822;BMP180;54434;50.096;20.082;2023-05-10T13:26:27;98983.80;;;18.90
67822;BMP180;54434;50.096;20.082;2023-05-10T13:29:05;98987.60;;;18.90
67822;BMP180;54434;50.096;20.082;2023-05-10T13:31:42;98981.60;;;18.84
67822;BMP180;54434;50.096;20.082;2023-05-10T13:34:19;98978.00;;;18.80
67822;BMP180;54434;50.096;20.082;2023-05-10T13:36:56;98970.20;;;18.80
67822;BMP180;54434;50.096;20.082;2023-05-10T13:39:33;98970.80;;;18.82
67822;BMP180;54434;50.096;20.082;2023-05-10T13:42:12;98971.00;;;18.80
67822;BMP180;54434;50.096;20.082;2023-05-10T13:44:49;98960.40;;;18.80
67822;BMP180;54434;50.096;20.082;2023-05-10T13:47:26;98962.00;;;18.80
67822;BMP180;54434;50.096;20.082;2023-05-10T13:50:02;98961.80;;;18.80
67822;BMP180;54434;50.096;20.082;2023-05-10T13:52:39;98958.60;;;18.80
67822;BMP180;54434;50.096;20.082;2023-05-10T13:55:16;98958.20;;;18.80
67822;BMP180;54434;50.096;20.082;2023-05-10T13:57:53;98956.80;;;18.80
67822;BMP180;54434;50.096;20.082;2023-05-10T14:00:30;98954.20;;;18.80
67822;BMP180;54434;50.096;20.082;2023-05-10T14:03:08;98944.00;;;18.80
67822;BMP180;54434;50.096;20.082;2023-05-10T14:05:47;98942.60;;;18.80
67822;BMP180;54434;50.096;20.082;2023-05-10T14:08:23;98943.80;;;18.80
67822;BMP180;54434;50.096;20.082;2023-05-10T14:11:02;98942.60;;;18.80
67822;BMP180;54434;50.096;20.082;2023-05-10T14:13:39;98950.80;;;18.80
67822;BMP180;54434;50.096;20.082;2023-05-10T14:16:16;98950.20;;;18.80
67822;BMP180;54434;50.096;20.082;2023-05-10T14:18:53;98940.40;;;18.80
67822;BMP180;54434;50.096;20.082;2023-05-10T14:21:33;98943.80;;;18.80
67822;BMP180;54434;50.096;20.082;2023-05-10T14:24:10;98935.40;;;18.80
67822;BMP180;54434;50.096;20.082;2023-05-10T14:26:47;98939.80;;;18.80
67822;BMP180;54434;50.096;20.082;2023-05-10T14:29:24;98938.40;;;18.80
67822;BMP180;54434;50.096;20.082;2023-05-10T14:32:01;98930.40;;;18.80
67822;BMP180;54434;50.096;20.082;2023-05-10T14:34:38;98936.00;;;18.80
67822;BMP180;54434;50.096;20.082;2023-05-10T14:37:17;98933.40;;;18.80
67822;BMP180;54434;50.096;20.082;2023-05-10T14:39:54;98945.20;;;18.80
67822;BMP180;54434;50.096;20.082;2023-05-10T14:42:31;98934.00;;;18.80
67822;BMP180;54434;50.096;20.082;2023-05-10T14:45:10;98938.60;;;18.80
67822;BMP180;54434;50.096;20.082;2023-05-10T14:47:47;98937.60;;;18.80
67822;BMP180;54434;50.096;20.082;2023-05-10T14:50:23;98930.60;;;18.80
67822;BMP180;54434;50.096;20.082;2023-05-10T14:53:12;98935.40;;;18.80
67822;BMP180;54434;50.096;20.082;2023-05-10T14:55:49;98928.00;;;18.80
67822;BMP180;54434;50.096;20.082;2023-05-10T14:58:26;98931.80;;;18.80
67822;BMP180;54434;50.096;20.082;2023-05-10T15:01:03;98937.20;;;18.80
67822;BMP180;54434;50.096;20.082;2023-05-10T15:03:41;98936.20;;;18.80
67822;BMP180;54434;50.096;20.082;2023-05-10T15:06:20;98937.20;;;18.80
67822;BMP180;54434;50.096;20.082;2023-05-10T15:08:59;98938.20;;;18.80
67822;BMP180;54434;50.096;20.082;2023-05-10T15:11:37;98929.60;;;18.80
67822;BMP180;54434;50.096;20.082;2023-05-10T15:14:13;98929.00;;;18.80